Ware River @ Gibbs Crossing, Ma

Ware River at Gibbs Crossing
 Total Drainage Area: 199 sq. miles 
 Drainage Area Controlled by Corps Dams: 55 sq. miles (28%) 
 Warning Flow/Stage: 2,030 cfs / 5.0 feet 
 Flood Flow/Stage: 2,420 cfs / 5.5 feet 
Date Time
(Eastern)
Stage
(ft)
Flow
(cfs)
CSM
(cfs / sq. mi.)
Jun-25 02:30 am 2.70 208 1.0
Jun-25 01:30 am 2.74 224 1.1
Jun-25 12:30 am 2.86 277 1.4
Jun-24 11:30 pm 2.88 286 1.4
Jun-24 10:30 pm 2.89 291 1.5
Jun-24 09:30 pm 2.90 296 1.5
Jun-24 08:30 pm 2.90 296 1.5
Jun-24 07:30 pm 2.91 302 1.5
Jun-24 06:30 pm 2.92 307 1.5
Jun-24 05:30 pm 2.93 312 1.6
Jun-24 04:30 pm 2.93 312 1.6
Jun-24 03:30 pm 2.95 323 1.6
Jun-24 02:30 pm 2.94 318 1.6
Jun-24 01:30 pm 2.94 318 1.6
Jun-24 12:30 pm 2.95 323 1.6
Jun-24 11:30 am 2.96 329 1.7
Jun-24 10:30 am 2.96 329 1.7
Jun-24 09:30 am 2.97 334 1.7
Jun-24 08:30 am 3.01 357 1.8
Jun-24 07:30 am 3.03 369 1.9
Jun-24 06:30 am 3.03 369 1.9
Jun-24 05:30 am 3.03 369 1.9
Jun-24 04:30 am 3.04 375 1.9
Jun-24 03:30 am 3.04 375 1.9
Jun-24 02:30 am 3.05 381 1.9
Report Generated June 25, 2024 06:56 am